createdAt,value
2022-11-21T00:00:58.362Z,1000.46
2022-11-21T00:01:59.213Z,1000.50
2022-11-21T00:02:59.816Z,1000.52
2022-11-21T00:03:58.473Z,1000.59
2022-11-21T00:04:58.482Z,1000.58
2022-11-21T00:06:00.642Z,1000.60
2022-11-21T00:06:58.521Z,1000.63
2022-11-21T00:07:58.880Z,1000.68
2022-11-21T00:08:58.563Z,1000.71
2022-11-21T00:10:06.464Z,1000.72
2022-11-21T00:11:00.255Z,1000.72
2022-11-21T00:11:59.223Z,1000.75
2022-11-21T00:12:59.683Z,1000.72
2022-11-21T00:13:58.255Z,1000.66
2022-11-21T00:14:59.683Z,1000.69
2022-11-21T00:15:59.655Z,1000.71
2022-11-21T00:16:59.165Z,1000.72
2022-11-21T00:17:59.554Z,1000.76
2022-11-21T00:18:59.629Z,1000.78
2022-11-21T00:19:59.124Z,1000.82
2022-11-21T00:20:59.574Z,1000.87
2022-11-21T00:21:59.595Z,1000.85
2022-11-21T00:22:59.223Z,1000.89
2022-11-21T00:23:59.084Z,1000.84
2022-11-21T00:24:59.465Z,1000.92
2022-11-21T00:25:59.525Z,1000.87
2022-11-21T00:26:59.525Z,1000.93
2022-11-21T00:27:59.046Z,1000.89
2022-11-21T00:28:59.045Z,1000.96
2022-11-21T00:29:59.496Z,1000.91
2022-11-21T00:30:59.496Z,1000.91
2022-11-21T00:31:59.479Z,1000.89
2022-11-21T00:32:59.479Z,1000.87
2022-11-21T00:33:59.576Z,1000.90
2022-11-21T00:34:58.956Z,1000.93
2022-11-21T00:35:58.934Z,1000.89
2022-11-21T00:36:58.905Z,1000.98
2022-11-21T00:37:59.406Z,1000.99
2022-11-21T00:38:59.388Z,1001.01
2022-11-21T00:39:58.897Z,1001.00
2022-11-21T00:40:58.916Z,1000.98
2022-11-21T00:41:58.186Z,1001.00
2022-11-21T00:42:59.369Z,1001.02
2022-11-21T00:43:58.848Z,1001.01
2022-11-21T00:44:59.338Z,1001.02
2022-11-21T00:45:59.010Z,1001.07
2022-11-21T00:46:59.333Z,1001.04
2022-11-21T00:47:59.340Z,1001.11
2022-11-21T00:48:58.863Z,1001.14
2022-11-21T00:49:59.277Z,1001.12
2022-11-21T00:50:58.768Z,1001.18
2022-11-21T00:51:59.287Z,1001.13
2022-11-21T00:52:59.288Z,1001.14
2022-11-21T00:53:59.249Z,1001.17
2022-11-21T00:54:59.238Z,1001.14
2022-11-21T00:55:59.245Z,1001.16
2022-11-21T00:56:59.123Z,1001.11
2022-11-21T00:57:59.310Z,1001.15
2022-11-21T00:58:58.728Z,1001.15
2022-11-21T00:59:57.969Z,1001.10
2022-11-21T01:00:58.725Z,1001.09
2022-11-21T01:01:58.730Z,1001.08
2022-11-21T01:02:59.199Z,1001.09
2022-11-21T01:03:59.224Z,1001.07
2022-11-21T01:04:59.139Z,1001.06
2022-11-21T01:06:01.042Z,1001.03
2022-11-21T01:06:58.120Z,1001.09
2022-11-21T01:07:59.170Z,1001.10
2022-11-21T01:08:58.712Z,1001.09
2022-11-21T01:09:58.645Z,1001.11
2022-11-21T01:10:58.590Z,1001.17
2022-11-21T01:12:00.475Z,1001.16
2022-11-21T01:12:59.056Z,1001.14
2022-11-21T01:13:58.541Z,1001.18
2022-11-21T01:14:59.034Z,1001.18
2022-11-21T01:15:58.533Z,1001.23
2022-11-21T01:16:59.002Z,1001.25
2022-11-21T01:17:58.481Z,1001.28
2022-11-21T01:18:59.000Z,1001.28
2022-11-21T01:19:59.004Z,1001.27
2022-11-21T01:20:59.451Z,1001.26
2022-11-21T01:21:58.572Z,1001.26
2022-11-21T01:22:58.942Z,1001.22
2022-11-21T01:23:58.434Z,1001.20
2022-11-21T01:24:58.927Z,1001.18
2022-11-21T01:25:58.444Z,1001.13
2022-11-21T01:26:59.438Z,1001.15
2022-11-21T01:27:58.402Z,1001.10
2022-11-21T01:28:59.362Z,1001.20
2022-11-21T01:29:58.911Z,1001.18
2022-11-21T01:30:58.876Z,1001.18
2022-11-21T01:31:58.374Z,1001.22
2022-11-21T01:32:58.882Z,1001.16
2022-11-21T01:33:58.952Z,1001.16
2022-11-21T01:34:58.847Z,1001.19
2022-11-21T01:35:58.872Z,1001.17
2022-11-21T01:36:58.804Z,1001.17
2022-11-21T01:37:58.822Z,1001.18
2022-11-21T01:38:58.784Z,1001.17
2022-11-21T01:39:58.793Z,1001.18
2022-11-21T01:40:58.304Z,1001.18
2022-11-21T01:41:58.763Z,1001.08
2022-11-21T01:42:58.744Z,1001.11
2022-11-21T01:43:58.739Z,1001.12
2022-11-21T01:44:58.225Z,1001.07
2022-11-21T01:45:58.734Z,1001.10
2022-11-21T01:46:59.240Z,1001.06
2022-11-21T01:47:58.204Z,1001.14
2022-11-21T01:48:58.214Z,1001.20
2022-11-21T01:49:59.176Z,1001.14
2022-11-21T01:50:57.255Z,1001.11
2022-11-21T01:51:58.680Z,1001.11
2022-11-21T01:52:58.183Z,1001.15
2022-11-21T01:53:58.117Z,1001.15
2022-11-21T01:54:58.366Z,1001.16
2022-11-21T01:55:58.105Z,1001.22
2022-11-21T01:56:57.325Z,1001.22
2022-11-21T01:57:57.155Z,1001.28
2022-11-21T01:58:58.099Z,1001.29
2022-11-21T01:59:58.047Z,1001.27
2022-11-21T02:00:59.069Z,1001.33
2022-11-21T02:01:58.056Z,1001.36
2022-11-21T02:02:58.123Z,1001.35
2022-11-21T02:03:58.017Z,1001.29
2022-11-21T02:04:57.087Z,1001.26
2022-11-21T02:05:58.022Z,1001.24
2022-11-21T02:06:58.106Z,1001.22
2022-11-21T02:07:58.006Z,1001.29
2022-11-21T02:08:58.217Z,1001.36
2022-11-21T02:09:57.956Z,1001.32
2022-11-21T02:10:57.940Z,1001.36
2022-11-21T02:11:57.957Z,1001.35
2022-11-21T02:12:57.027Z,1001.30
2022-11-21T02:13:58.982Z,1001.34
2022-11-21T02:14:58.417Z,1001.32
2022-11-21T02:15:58.407Z,1001.34
2022-11-21T02:16:58.877Z,1001.31
2022-11-21T02:17:58.879Z,1001.33
2022-11-21T02:18:59.087Z,1001.36
2022-11-21T02:19:58.878Z,1001.37
2022-11-21T02:20:57.850Z,1001.39
2022-11-21T02:21:58.342Z,1001.39
2022-11-21T02:22:59.751Z,1001.43
2022-11-21T02:24:00.325Z,1001.44
2022-11-21T02:24:58.799Z,1001.40
2022-11-21T02:25:58.839Z,1001.40
2022-11-21T02:26:57.069Z,1001.42
2022-11-21T02:27:58.281Z,1001.46
2022-11-21T02:28:58.260Z,1001.45
2022-11-21T02:29:58.301Z,1001.51
2022-11-21T02:30:57.750Z,1001.55
2022-11-21T02:31:56.951Z,1001.56
2022-11-21T02:32:57.129Z,1001.58
2022-11-21T02:33:58.220Z,1001.60
2022-11-21T02:34:58.214Z,1001.53
2022-11-21T02:35:57.700Z,1001.51
2022-11-21T02:36:57.701Z,1001.47
2022-11-21T02:37:58.061Z,1001.47
2022-11-21T02:38:57.135Z,1001.43
2022-11-21T02:39:57.692Z,1001.45
2022-11-21T02:40:58.131Z,1001.39
2022-11-21T02:41:58.132Z,1001.37
2022-11-21T02:42:58.160Z,1001.36
2022-11-21T02:43:57.640Z,1001.35
2022-11-21T02:44:58.102Z,1001.31
2022-11-21T02:45:58.072Z,1001.32
2022-11-21T02:46:57.576Z,1001.30
2022-11-21T02:48:03.353Z,1001.31
2022-11-21T02:48:59.083Z,1001.35
2022-11-21T02:49:58.033Z,1001.32
2022-11-21T02:50:58.032Z,1001.35
2022-11-21T02:51:58.015Z,1001.34
2022-11-21T02:52:57.501Z,1001.30
2022-11-21T02:53:58.488Z,1001.31
2022-11-21T02:54:57.603Z,1001.30
2022-11-21T02:55:57.462Z,1001.32
2022-11-21T02:56:56.553Z,1001.27
2022-11-21T02:58:03.285Z,1001.29
2022-11-21T02:58:58.454Z,1001.25
2022-11-21T02:59:57.483Z,1001.16
2022-11-21T03:00:56.558Z,1001.15
2022-11-21T03:01:57.914Z,1001.17
2022-11-21T03:02:57.398Z,1001.18
2022-11-21T03:03:58.404Z,1001.17
2022-11-21T03:04:56.752Z,1001.18
2022-11-21T03:05:56.483Z,1001.13
2022-11-21T03:06:57.898Z,1001.18
2022-11-21T03:07:57.333Z,1001.21
2022-11-21T03:08:57.355Z,1001.19
2022-11-21T03:09:57.824Z,1001.16
2022-11-21T03:10:56.401Z,1001.13
2022-11-21T03:11:57.425Z,1001.13
2022-11-21T03:12:57.295Z,1001.19
2022-11-21T03:13:57.266Z,1001.16
2022-11-21T03:14:57.297Z,1001.19
2022-11-21T03:15:57.756Z,1001.19
2022-11-21T03:16:56.325Z,1001.24
2022-11-21T03:17:57.307Z,1001.23
2022-11-21T03:18:57.725Z,1001.23
2022-11-21T03:19:58.234Z,1001.18
2022-11-21T03:20:56.275Z,1001.22
2022-11-21T03:21:57.685Z,1001.20
2022-11-21T03:22:56.259Z,1001.22
2022-11-21T03:23:57.715Z,1001.20
2022-11-21T03:24:57.195Z,1001.18
2022-11-21T03:25:57.646Z,1001.21
2022-11-21T03:26:57.658Z,1001.22
2022-11-21T03:27:57.625Z,1001.23
2022-11-21T03:28:57.619Z,1001.24
2022-11-21T03:29:56.319Z,1001.21
2022-11-21T03:30:57.586Z,1001.23
2022-11-21T03:31:57.098Z,1001.22
2022-11-21T03:32:56.155Z,1001.22
2022-11-21T03:33:57.604Z,1001.25
2022-11-21T03:34:58.088Z,1001.25
2022-11-21T03:35:57.195Z,1001.28
2022-11-21T03:36:57.037Z,1001.28
2022-11-21T03:37:57.521Z,1001.25
2022-11-21T03:38:57.513Z,1001.23
2022-11-21T03:39:57.552Z,1001.21
2022-11-21T03:40:56.068Z,1001.22
2022-11-21T03:41:56.727Z,1001.18
2022-11-21T03:42:57.488Z,1001.16
2022-11-21T03:43:56.950Z,1001.08
2022-11-21T03:44:57.459Z,1001.08
2022-11-21T03:45:56.019Z,1001.08
2022-11-21T03:46:57.472Z,1001.11
2022-11-21T03:47:56.029Z,1001.07
2022-11-21T03:48:57.410Z,1001.13
2022-11-21T03:49:57.399Z,1001.10
2022-11-21T03:50:56.921Z,1001.15
2022-11-21T03:51:55.952Z,1001.14
2022-11-21T03:52:56.018Z,1001.08
2022-11-21T03:53:57.462Z,1001.14
2022-11-21T03:54:57.369Z,1001.06
2022-11-21T03:55:57.431Z,1001.10
2022-11-21T03:56:57.349Z,1001.18
2022-11-21T03:57:55.889Z,1001.14
2022-11-21T03:58:56.862Z,1001.14
2022-11-21T03:59:57.851Z,1001.17
2022-11-21T04:00:57.424Z,1001.18
2022-11-21T04:01:56.839Z,1001.21
2022-11-21T04:02:56.801Z,1001.20
2022-11-21T04:03:56.842Z,1001.19
2022-11-21T04:04:57.799Z,1001.15
2022-11-21T04:05:58.740Z,1001.17
2022-11-21T04:06:55.829Z,1001.18
2022-11-21T04:07:56.647Z,1001.16
2022-11-21T04:08:56.959Z,1001.17
2022-11-21T04:09:57.744Z,1001.19
2022-11-21T04:10:56.742Z,1001.20
2022-11-21T04:11:56.166Z,1001.22
2022-11-21T04:12:55.722Z,1001.20
2022-11-21T04:13:57.180Z,1001.24
2022-11-21T04:14:57.248Z,1001.20
2022-11-21T04:15:55.924Z,1001.17
2022-11-21T04:16:56.573Z,1001.18
2022-11-21T04:17:57.579Z,1001.21
2022-11-21T04:18:58.020Z,1001.23
2022-11-21T04:19:55.752Z,1001.20
2022-11-21T04:20:56.583Z,1001.21
2022-11-21T04:21:57.045Z,1001.24
2022-11-21T04:22:56.563Z,1001.20
2022-11-21T04:23:55.636Z,1001.22
2022-11-21T04:24:57.552Z,1001.26
2022-11-21T04:25:57.035Z,1001.24
2022-11-21T04:26:57.043Z,1001.21
2022-11-21T04:27:57.014Z,1001.17
2022-11-21T04:28:57.005Z,1001.16
2022-11-21T04:29:55.563Z,1001.24
2022-11-21T04:30:59.355Z,1001.23
2022-11-21T04:31:56.524Z,1001.27
2022-11-21T04:32:56.465Z,1001.23
2022-11-21T04:33:56.937Z,1001.19
2022-11-21T04:34:56.475Z,1001.17
2022-11-21T04:35:56.464Z,1001.21
2022-11-21T04:36:55.611Z,1001.17
2022-11-21T04:37:56.416Z,1001.20
2022-11-21T04:38:57.056Z,1001.14
2022-11-21T04:39:57.024Z,1001.11
2022-11-21T04:40:55.666Z,1001.14
2022-11-21T04:41:55.608Z,1001.12
2022-11-21T04:42:55.811Z,1001.14
2022-11-21T04:43:56.335Z,1001.06
2022-11-21T04:44:55.405Z,1001.01
2022-11-21T04:45:57.325Z,1001.13
2022-11-21T04:46:55.356Z,1001.05
2022-11-21T04:47:56.916Z,1001.10
2022-11-21T04:48:56.787Z,1001.04
2022-11-21T04:49:55.737Z,1001.04
2022-11-21T04:50:56.368Z,1001.04
2022-11-21T04:51:56.848Z,1000.93
2022-11-21T04:52:56.767Z,1000.96
2022-11-21T04:53:56.487Z,1000.95
2022-11-21T04:54:56.797Z,1001.02
2022-11-21T04:55:55.481Z,1000.96
2022-11-21T04:56:55.489Z,1000.99
2022-11-21T04:57:57.187Z,1000.94
2022-11-21T04:58:56.690Z,1001.03
2022-11-21T04:59:56.787Z,1001.00
2022-11-21T05:00:55.723Z,1001.02
2022-11-21T05:01:56.639Z,1001.08
2022-11-21T05:02:57.139Z,1000.99
2022-11-21T05:03:56.128Z,1001.06
2022-11-21T05:04:56.608Z,1001.04
2022-11-21T05:05:56.628Z,1001.08
2022-11-21T05:06:55.151Z,1001.04
2022-11-21T05:07:55.146Z,1001.08
2022-11-21T05:08:56.009Z,1001.08
2022-11-21T05:09:56.560Z,1001.12
2022-11-21T05:10:55.108Z,1001.04
2022-11-21T05:11:56.565Z,1001.04
2022-11-21T05:12:55.080Z,1001.08
2022-11-21T05:13:56.510Z,1001.01
2022-11-21T05:14:56.500Z,1001.09
2022-11-21T05:15:55.051Z,1001.06
2022-11-21T05:16:56.490Z,1001.07
2022-11-21T05:17:56.509Z,1001.05
2022-11-21T05:18:56.460Z,1001.09
2022-11-21T05:19:56.450Z,1001.09
2022-11-21T05:20:56.452Z,1001.08
2022-11-21T05:21:56.431Z,1001.13
2022-11-21T05:22:54.971Z,1001.14
2022-11-21T05:23:56.446Z,1001.16
2022-11-21T05:24:56.393Z,1001.13
2022-11-21T05:25:56.381Z,1001.12
2022-11-21T05:26:54.943Z,1001.13
2022-11-21T05:27:56.367Z,1001.13
2022-11-21T05:28:56.351Z,1001.13
2022-11-21T05:29:54.932Z,1001.12
2022-11-21T05:30:56.332Z,1001.11
2022-11-21T05:31:54.881Z,1001.03
2022-11-21T05:32:55.562Z,1000.98
2022-11-21T05:33:54.863Z,1000.94
2022-11-21T05:34:56.303Z,1000.96
2022-11-21T05:35:56.309Z,1000.92
2022-11-21T05:36:56.265Z,1000.94
2022-11-21T05:37:56.242Z,1000.98
2022-11-21T05:38:56.242Z,1000.96
2022-11-21T05:39:55.742Z,1000.96
2022-11-21T05:40:54.781Z,1001.00
2022-11-21T05:42:02.535Z,1000.97
2022-11-21T05:42:57.236Z,1001.04
2022-11-21T05:43:55.704Z,1001.03
2022-11-21T05:44:56.172Z,1001.08
2022-11-21T05:45:54.752Z,1001.08
2022-11-21T05:46:54.723Z,1001.06
2022-11-21T05:47:55.713Z,1001.02
2022-11-21T05:48:54.738Z,1001.02
2022-11-21T05:49:56.114Z,1001.01
2022-11-21T05:50:54.673Z,1000.96
2022-11-21T05:51:55.616Z,1000.99
2022-11-21T05:52:54.663Z,1000.90
2022-11-21T05:53:56.194Z,1000.85
2022-11-21T05:54:56.124Z,1000.91
2022-11-21T05:55:54.626Z,1000.87
2022-11-21T05:56:55.545Z,1000.87
2022-11-21T05:57:55.534Z,1000.97
2022-11-21T05:58:54.596Z,1001.00
2022-11-21T05:59:56.587Z,1001.00
2022-11-21T06:00:59.712Z,1001.05
2022-11-21T06:01:55.411Z,1001.04
2022-11-21T06:02:55.534Z,1001.05
2022-11-21T06:03:55.486Z,1001.06
2022-11-21T06:04:55.466Z,1001.00
2022-11-21T06:05:55.569Z,1000.99
2022-11-21T06:06:54.516Z,1001.09
2022-11-21T06:07:56.446Z,1001.12
2022-11-21T06:08:55.426Z,1001.11
2022-11-21T06:09:55.420Z,1001.12
2022-11-21T06:10:54.479Z,1001.16
2022-11-21T06:11:55.505Z,1001.13
2022-11-21T06:12:55.431Z,1001.20
2022-11-21T06:13:54.486Z,1001.17
2022-11-21T06:14:55.360Z,1001.16
2022-11-21T06:15:54.717Z,1001.11
2022-11-21T06:16:55.857Z,1001.07
2022-11-21T06:17:55.217Z,1001.10
2022-11-21T06:18:58.433Z,1211.58
2022-11-21T06:19:56.324Z,1211.58
2022-11-21T06:20:54.383Z,1211.58
2022-11-21T06:21:55.288Z,1211.58
2022-11-21T06:22:56.328Z,1211.58
2022-11-21T06:23:55.249Z,1211.58
2022-11-21T06:24:55.259Z,1211.58
2022-11-21T06:25:54.318Z,1211.58
2022-11-21T06:26:55.249Z,1211.58
2022-11-21T06:27:54.308Z,1211.58
2022-11-21T06:28:55.242Z,1211.58
2022-11-21T06:29:55.188Z,1211.58
2022-11-21T06:30:55.201Z,1211.58
2022-11-21T06:31:55.175Z,1211.58
2022-11-21T06:32:55.203Z,1211.58
2022-11-21T06:33:55.682Z,1211.58
2022-11-21T06:34:55.269Z,1211.58
2022-11-21T06:35:54.231Z,1211.58
2022-11-21T06:36:55.119Z,1211.58
2022-11-21T06:37:54.188Z,1211.58
2022-11-21T06:38:56.135Z,1211.58
2022-11-21T06:39:55.091Z,1211.58
2022-11-21T06:40:55.111Z,1211.58
2022-11-21T06:41:55.082Z,1211.58
2022-11-21T06:42:56.102Z,1211.58
2022-11-21T06:43:55.041Z,1211.58
2022-11-21T06:44:54.140Z,1211.58
2022-11-21T06:45:54.113Z,1211.58
2022-11-21T06:46:54.161Z,1211.58
2022-11-21T06:47:54.100Z,1211.58
2022-11-21T06:48:55.541Z,1211.58
2022-11-21T06:49:54.988Z,1211.58
2022-11-21T06:50:54.213Z,1211.58
2022-11-21T06:51:54.051Z,1211.58
2022-11-21T06:52:55.012Z,1211.58
2022-11-21T06:53:55.531Z,1211.58
2022-11-21T06:54:54.064Z,1211.58
2022-11-21T06:55:54.952Z,1211.58
2022-11-21T06:56:55.944Z,1211.58
2022-11-21T06:57:55.922Z,1211.58
2022-11-21T06:58:54.043Z,1211.58
2022-11-21T06:59:55.392Z,1211.58
2022-11-21T07:00:55.432Z,1211.58
2022-11-21T07:01:53.951Z,1211.58
2022-11-21T07:03:01.621Z,1211.58
2022-11-21T07:03:54.964Z,1211.58
2022-11-21T07:04:54.853Z,1211.58
2022-11-21T07:05:54.973Z,1211.58
2022-11-21T07:06:55.323Z,1211.58
2022-11-21T07:07:53.903Z,1211.58
2022-11-21T07:09:25.553Z,1211.58
2022-11-21T07:09:55.857Z,1211.58
2022-11-21T07:11:22.927Z,1211.58
2022-11-21T07:11:56.665Z,1211.58
2022-11-21T07:12:55.264Z,1211.58
2022-11-21T07:13:55.258Z,1211.58
2022-11-21T07:14:55.234Z,1211.58
2022-11-21T07:15:54.836Z,1211.58
2022-11-21T07:16:53.784Z,1211.58
2022-11-21T07:17:55.223Z,1211.58
2022-11-21T07:18:53.779Z,1211.58
2022-11-21T07:19:54.598Z,1211.58
2022-11-21T07:20:55.168Z,1211.58
2022-11-21T07:21:54.713Z,1211.58
2022-11-21T07:22:53.747Z,1211.58
2022-11-21T07:23:53.755Z,1211.58
2022-11-21T07:24:55.134Z,1211.58
2022-11-21T07:25:55.126Z,1211.58
2022-11-21T07:26:55.116Z,1211.58
2022-11-21T07:27:54.656Z,1211.58
2022-11-21T07:28:54.632Z,1211.58
2022-11-21T07:29:54.605Z,1211.58
2022-11-21T07:30:55.077Z,1211.58
2022-11-21T07:31:54.605Z,1211.58
2022-11-21T07:32:55.075Z,1211.58
2022-11-21T07:33:55.076Z,1211.58
2022-11-21T07:34:54.558Z,1211.58
2022-11-21T07:35:55.006Z,1211.58
2022-11-21T07:36:54.527Z,1211.58
2022-11-21T07:37:54.991Z,1211.58
2022-11-21T07:38:54.979Z,1211.58
2022-11-21T07:39:54.995Z,1211.58
2022-11-21T07:40:54.506Z,1211.58
2022-11-21T07:41:55.457Z,1211.58
2022-11-21T07:42:54.464Z,1211.58
2022-11-21T07:43:54.447Z,1211.58
2022-11-21T07:44:54.458Z,1211.58
2022-11-21T07:45:55.422Z,1211.58
2022-11-21T07:46:54.898Z,1211.58
2022-11-21T07:47:54.899Z,1211.58
2022-11-21T07:48:54.380Z,1211.58
2022-11-21T07:49:53.458Z,1211.58
2022-11-21T07:50:53.438Z,1211.58
2022-11-21T07:51:54.400Z,1211.58
2022-11-21T07:52:54.082Z,1211.58
2022-11-21T07:53:54.849Z,1211.58
2022-11-21T07:54:54.833Z,1211.58
2022-11-21T07:55:54.848Z,1211.58
2022-11-21T07:56:54.311Z,1211.58
2022-11-21T07:57:54.311Z,1211.58
2022-11-21T07:58:53.653Z,1211.58
2022-11-21T07:59:53.329Z,1211.58
2022-11-21T08:00:54.774Z,1211.58
2022-11-21T08:01:55.684Z,1211.58
2022-11-21T08:02:54.270Z,1211.58
2022-11-21T08:03:53.409Z,1211.58
2022-11-21T08:04:53.301Z,1211.58
2022-11-21T08:05:54.701Z,1211.58
2022-11-21T08:06:53.651Z,1211.58
2022-11-21T08:07:54.682Z,1211.58
2022-11-21T08:08:56.020Z,1211.58
2022-11-21T08:09:54.790Z,1211.58
2022-11-21T08:10:54.161Z,1211.58
2022-11-21T08:11:54.161Z,1211.58
2022-11-21T08:12:54.143Z,1211.58
2022-11-21T08:13:55.535Z,1211.58
2022-11-21T08:14:53.211Z,1211.58
2022-11-21T08:15:54.173Z,1211.58
2022-11-21T08:16:54.631Z,1211.58
2022-11-21T08:17:54.121Z,1211.58
2022-11-21T08:18:53.743Z,1211.58
2022-11-21T08:19:54.563Z,1211.58
2022-11-21T08:20:54.553Z,1211.58
2022-11-21T08:21:54.552Z,1211.58
2022-11-21T08:22:53.252Z,1211.58
2022-11-21T08:23:54.021Z,1211.58
2022-11-21T08:24:54.537Z,1211.58
2022-11-21T08:25:54.498Z,1211.58
2022-11-21T08:26:54.493Z,1211.58
2022-11-21T08:27:54.492Z,1211.58
2022-11-21T08:28:59.735Z,1211.58
2022-11-21T08:29:54.935Z,1211.58
2022-11-21T08:30:54.466Z,1211.58
2022-11-21T08:31:53.925Z,1211.58
2022-11-21T08:32:53.974Z,1211.58
2022-11-21T08:33:53.095Z,1211.58
2022-11-21T08:34:54.456Z,1211.58
2022-11-21T08:35:54.395Z,1211.58
2022-11-21T08:36:53.885Z,1211.58
2022-11-21T08:37:53.894Z,1211.58
2022-11-21T08:38:53.864Z,1211.58
2022-11-21T08:39:54.375Z,1211.58
2022-11-21T08:40:53.855Z,1211.58
2022-11-21T08:41:53.848Z,1211.58
2022-11-21T08:42:53.855Z,1211.58
2022-11-21T08:43:54.295Z,1211.58
2022-11-21T08:44:53.787Z,1211.58
2022-11-21T08:45:53.816Z,1211.58
2022-11-21T08:46:54.279Z,1211.58
2022-11-21T08:47:54.277Z,1211.58
2022-11-21T08:48:54.247Z,1211.58
2022-11-21T08:49:53.735Z,1211.58
2022-11-21T08:50:53.789Z,1211.58
2022-11-21T08:51:53.836Z,1211.58
2022-11-21T08:52:54.209Z,1211.58
2022-11-21T08:53:53.696Z,1211.58
2022-11-21T08:54:54.197Z,1211.58
2022-11-21T08:55:54.198Z,1211.58
2022-11-21T08:56:52.989Z,1211.58
2022-11-21T08:57:53.701Z,1211.58
2022-11-21T08:58:54.147Z,1211.58
2022-11-21T08:59:54.650Z,1211.58
2022-11-21T09:00:54.327Z,1211.58
2022-11-21T09:01:52.766Z,1211.58
2022-11-21T09:02:53.617Z,1211.58
2022-11-21T09:03:54.127Z,1211.58
2022-11-21T09:04:54.088Z,1211.58
2022-11-21T09:05:53.007Z,1211.58
2022-11-21T09:06:54.054Z,1211.58
2022-11-21T09:07:54.568Z,1211.58
2022-11-21T09:08:52.883Z,1211.58
2022-11-21T09:09:54.068Z,1211.58
2022-11-21T09:10:53.520Z,1211.58
2022-11-21T09:11:53.510Z,1211.58
2022-11-21T09:12:54.028Z,1211.58
2022-11-21T09:13:53.479Z,1211.58
2022-11-21T09:14:53.480Z,1211.58
2022-11-21T09:15:54.079Z,1211.58
2022-11-21T09:16:55.769Z,1211.58
2022-11-21T09:17:54.442Z,1211.58
2022-11-21T09:18:54.449Z,1211.58
2022-11-21T09:19:53.994Z,1211.58
2022-11-21T09:20:54.419Z,1211.58
2022-11-21T09:21:53.429Z,1211.58
2022-11-21T09:22:53.660Z,1211.58
2022-11-21T09:23:53.371Z,1211.58
2022-11-21T09:24:53.385Z,1211.58
2022-11-21T09:25:53.840Z,1211.58
2022-11-21T09:26:52.796Z,1211.58
2022-11-21T09:27:53.926Z,1211.58
2022-11-21T09:28:53.835Z,1211.58
2022-11-21T09:29:54.348Z,1211.58
2022-11-21T09:30:53.828Z,1211.58
2022-11-21T09:31:53.290Z,1211.58
2022-11-21T09:32:53.309Z,1211.58
2022-11-21T09:33:55.218Z,1211.58
2022-11-21T09:34:54.284Z,1211.58
2022-11-21T09:35:54.262Z,1211.58
2022-11-21T09:36:54.251Z,1211.58
2022-11-21T09:37:53.225Z,1211.58
2022-11-21T09:38:53.221Z,1211.58
2022-11-21T09:39:54.305Z,1211.58
2022-11-21T09:40:53.740Z,1211.58
2022-11-21T09:41:54.210Z,1211.58
2022-11-21T09:42:53.202Z,1211.58
2022-11-21T09:43:55.817Z,1211.58
2022-11-21T09:44:54.172Z,1211.58
2022-11-21T09:45:54.173Z,1211.58
2022-11-21T09:46:54.144Z,1211.58
2022-11-21T09:47:54.138Z,1211.58
2022-11-21T09:48:53.632Z,1211.58
2022-11-21T09:49:54.131Z,1211.58
2022-11-21T09:50:54.404Z,1211.58
2022-11-21T09:51:53.123Z,1211.58
2022-11-21T09:52:54.098Z,1211.58
2022-11-21T09:53:54.054Z,1211.58
2022-11-21T09:54:54.070Z,1211.58
2022-11-21T09:55:54.085Z,1211.58
2022-11-21T09:56:54.065Z,1211.58
2022-11-21T09:57:54.144Z,1211.58
2022-11-21T09:58:53.026Z,1211.58
2022-11-21T09:59:54.906Z,1211.58
2022-11-21T10:00:53.067Z,1211.58
2022-11-21T10:01:53.986Z,1211.58
2022-11-21T10:02:53.989Z,1211.58
2022-11-21T10:03:54.002Z,1211.58
2022-11-21T10:04:53.477Z,1211.58
2022-11-21T10:05:52.952Z,1211.58
2022-11-21T10:06:53.935Z,1211.58
2022-11-21T10:07:53.925Z,1211.58
2022-11-21T10:08:53.049Z,1211.58
2022-11-21T10:09:53.903Z,1211.58
2022-11-21T10:10:53.395Z,1211.58
2022-11-21T10:11:53.876Z,1211.58
2022-11-21T10:12:53.876Z,1211.58
2022-11-21T10:13:53.857Z,1211.58
2022-11-21T10:14:53.966Z,1211.58
2022-11-21T10:15:53.849Z,1211.58
2022-11-21T10:16:53.826Z,1211.58
2022-11-21T10:17:53.827Z,1211.58
2022-11-21T10:18:53.806Z,1211.58
2022-11-21T10:19:53.799Z,1211.58
2022-11-21T10:20:53.307Z,1211.58
2022-11-21T10:21:53.784Z,1211.58
2022-11-21T10:22:53.767Z,1211.58
2022-11-21T10:23:53.772Z,1211.58
2022-11-21T10:24:53.752Z,1211.58
2022-11-21T10:25:53.759Z,1211.58
2022-11-21T10:26:53.718Z,1211.58
2022-11-21T10:27:53.701Z,1211.58
2022-11-21T10:28:53.690Z,1211.58
2022-11-21T10:29:52.659Z,1211.58
2022-11-21T10:30:52.690Z,1211.58
2022-11-21T10:31:53.700Z,1211.58
2022-11-21T10:32:53.652Z,1211.58
2022-11-21T10:33:53.642Z,1211.58
2022-11-21T10:34:53.140Z,1211.58
2022-11-21T10:35:53.619Z,1211.58
2022-11-21T10:36:53.609Z,1211.58
2022-11-21T10:37:53.229Z,1211.58
2022-11-21T10:38:52.571Z,1211.58
2022-11-21T10:39:51.640Z,1211.58
2022-11-21T10:40:52.561Z,1211.58
2022-11-21T10:41:52.580Z,1211.58
2022-11-21T10:42:52.610Z,1211.58
2022-11-21T10:43:53.590Z,1211.58
2022-11-21T10:44:51.606Z,1211.58
2022-11-21T10:45:52.514Z,1211.58
2022-11-21T10:46:52.502Z,1211.58
2022-11-21T10:47:52.491Z,1211.58
2022-11-21T10:48:53.512Z,1211.58
2022-11-21T10:49:53.532Z,1211.58
2022-11-21T10:50:51.539Z,1211.58
2022-11-21T10:51:53.484Z,1211.58
2022-11-21T10:52:52.443Z,1211.58
2022-11-21T10:53:51.499Z,1211.58
2022-11-21T10:54:51.492Z,1211.58
2022-11-21T10:55:53.493Z,1211.58
2022-11-21T10:56:52.808Z,1211.58
2022-11-21T10:57:53.391Z,1211.58
2022-11-21T10:58:52.903Z,1211.58
2022-11-21T10:59:51.433Z,1211.58
2022-11-21T11:00:52.324Z,1211.58
2022-11-21T11:01:52.393Z,1211.58
2022-11-21T11:02:52.339Z,1211.58
2022-11-21T11:04:21.029Z,1211.58
2022-11-21T11:04:53.823Z,1211.58
2022-11-21T11:05:52.293Z,1211.58
2022-11-21T11:06:53.302Z,1211.58
2022-11-21T11:07:51.452Z,1211.58
2022-11-21T11:08:52.278Z,1211.58
2022-11-21T11:09:52.265Z,1211.58
2022-11-21T11:10:53.265Z,1211.58
2022-11-21T11:11:51.325Z,1211.58
2022-11-21T11:12:53.234Z,1211.58
2022-11-21T11:13:51.436Z,1211.58
2022-11-21T11:14:51.273Z,1211.58
2022-11-21T11:15:52.194Z,1211.58
2022-11-21T11:16:53.205Z,1211.58
2022-11-21T11:17:52.194Z,1211.58
2022-11-21T11:18:52.838Z,1211.58
2022-11-21T11:19:52.724Z,1211.58
2022-11-21T11:20:52.014Z,1211.58
2022-11-21T11:21:52.144Z,1211.58
2022-11-21T11:22:51.435Z,1211.58
2022-11-21T11:23:51.184Z,1211.58
2022-11-21T11:24:58.993Z,1211.58
2022-11-21T11:25:54.147Z,1211.58
2022-11-21T11:26:52.093Z,1211.58
2022-11-21T11:27:52.086Z,1211.58
2022-11-21T11:28:51.135Z,1211.58
2022-11-21T11:29:51.127Z,1211.58
2022-11-21T11:30:52.026Z,1211.58
2022-11-21T11:31:52.197Z,1211.58
2022-11-21T11:32:52.020Z,1211.58
2022-11-21T11:33:51.090Z,1211.58
2022-11-21T11:34:51.981Z,1211.58
2022-11-21T11:35:52.477Z,1211.58
2022-11-21T11:36:52.472Z,1211.58
2022-11-21T11:37:51.970Z,1211.58
2022-11-21T11:38:51.937Z,1211.58
2022-11-21T11:39:51.017Z,1211.58
2022-11-21T11:40:50.999Z,1211.58
2022-11-21T11:41:51.907Z,1211.58
2022-11-21T11:42:50.999Z,1211.58
2022-11-21T11:43:51.917Z,1211.58
2022-11-21T11:44:51.200Z,1211.58
2022-11-21T11:45:52.383Z,1211.58
2022-11-21T11:46:50.952Z,1211.58
2022-11-21T11:47:54.609Z,1211.58
2022-11-21T11:49:17.410Z,1211.58
2022-11-21T11:49:52.882Z,1211.58
2022-11-21T11:50:51.850Z,1211.58
2022-11-21T11:51:52.835Z,1211.58
2022-11-21T11:52:50.879Z,1211.58
2022-11-21T11:53:57.324Z,1211.58
2022-11-21T11:54:53.815Z,1211.58
2022-11-21T11:55:50.880Z,1211.58
2022-11-21T11:56:50.829Z,1211.58
2022-11-21T11:57:50.833Z,1211.58
2022-11-21T11:58:52.241Z,1211.58
2022-11-21T11:59:51.722Z,1211.58
2022-11-21T12:00:51.723Z,1211.58
2022-11-21T12:01:52.832Z,1211.58
2022-11-21T12:02:52.223Z,1211.58
2022-11-21T12:03:54.984Z,1211.58
2022-11-21T12:04:52.660Z,1211.58
2022-11-21T12:05:50.741Z,1211.58